Terminal Aerodrome Forecast
Issued by NWS

Home | Current Version | Previous Version | Text Only | Print | Product List | Glossary On
Versions: 1 2 3 4 5 6 7 8 9 10 11 12 13 14 15 16 17 18 19 20 21 22 23 24 25 26 27 28 29 30 31 32 33 34
000
FTAK31 PANC 242322
TAFATK
TAF
PATK 242322Z 2500/2524 20007KT 6SM -RA BR SCT015 OVC025
      TEMPO 2500/2503 4SM -RA BR BKN015
     FM250900 18011KT P6SM VCSH SCT025 OVC050
     FM251800 19008KT P6SM -SHRA SCT020 OVC035=

USA.gov is the U.S. government's official web portal to all federal, state and local government web resources and services.